createdAt,value
2017-10-07T00:01:07.758Z,92.10
2017-10-07T00:03:35.626Z,92.10
2017-10-07T00:06:03.493Z,92.10
2017-10-07T00:08:31.360Z,92.40
2017-10-07T00:10:59.227Z,92.40
2017-10-07T00:13:27.096Z,92.50
2017-10-07T00:15:54.973Z,92.50
2017-10-07T00:18:22.833Z,92.50
2017-10-07T00:20:50.702Z,92.40
2017-10-07T00:23:18.569Z,92.70
2017-10-07T00:25:46.435Z,92.20
2017-10-07T00:28:14.306Z,92.10
2017-10-07T00:30:42.273Z,91.80
2017-10-07T00:33:10.146Z,91.60
2017-10-07T00:35:38.004Z,91.60
2017-10-07T00:38:05.874Z,91.50
2017-10-07T00:40:33.738Z,91.30
2017-10-07T00:43:01.605Z,91.40
2017-10-07T00:45:29.473Z,91.40
2017-10-07T00:47:57.443Z,91.40
2017-10-07T00:50:25.309Z,91.30
2017-10-07T00:52:53.177Z,91.00
2017-10-07T00:55:21.044Z,91.10
2017-10-07T00:57:49.013Z,91.20
2017-10-07T01:00:16.881Z,91.20
2017-10-07T01:02:44.748Z,91.30
2017-10-07T01:05:12.615Z,91.30
2017-10-07T01:07:40.484Z,91.40
2017-10-07T01:10:08.350Z,91.10
2017-10-07T01:12:36.217Z,91.10
2017-10-07T01:15:04.087Z,91.10
2017-10-07T01:17:32.054Z,91.10
2017-10-07T01:20:00.869Z,91.20
2017-10-07T01:22:28.813Z,91.10
2017-10-07T01:24:56.783Z,91.20
2017-10-07T01:27:24.650Z,91.20
2017-10-07T01:29:52.517Z,91.30
2017-10-07T01:32:21.204Z,91.30
2017-10-07T01:34:49.071Z,91.20
2017-10-07T01:37:16.940Z,91.30
2017-10-07T01:39:44.806Z,91.30
2017-10-07T01:42:12.673Z,91.70
2017-10-07T01:44:40.540Z,91.80
2017-10-07T01:47:08.408Z,92.10
2017-10-07T01:49:36.276Z,92.00
2017-10-07T01:52:04.143Z,92.30
2017-10-07T01:54:32.010Z,92.30
2017-10-07T01:56:59.806Z,92.30
2017-10-07T01:59:28.462Z,92.20
2017-10-07T02:01:56.328Z,92.20
2017-10-07T02:04:24.130Z,92.10
2017-10-07T02:06:52.780Z,92.00
2017-10-07T02:09:20.647Z,92.00
2017-10-07T02:11:48.515Z,92.10
2017-10-07T02:14:16.382Z,92.10
2017-10-07T02:16:44.250Z,92.20
2017-10-07T02:19:12.127Z,92.00
2017-10-07T02:21:39.984Z,92.10
2017-10-07T02:24:07.855Z,92.10
2017-10-07T02:26:35.719Z,92.10
2017-10-07T02:29:03.585Z,91.90
2017-10-07T02:31:31.453Z,91.90
2017-10-07T02:33:59.320Z,91.90
2017-10-07T02:36:27.187Z,91.70
2017-10-07T02:38:55.056Z,91.50
2017-10-07T02:41:22.922Z,91.50
2017-10-07T02:43:50.793Z,91.40
2017-10-07T02:46:18.657Z,91.50
2017-10-07T02:48:46.528Z,91.60
2017-10-07T02:51:14.388Z,91.50
2017-10-07T02:53:42.258Z,91.30
2017-10-07T02:56:10.127Z,91.30
2017-10-07T02:58:37.993Z,91.40
2017-10-07T03:01:05.860Z,91.40
2017-10-07T03:03:33.727Z,91.40
2017-10-07T03:06:01.601Z,91.40
2017-10-07T03:08:29.463Z,91.30
2017-10-07T03:10:57.329Z,91.30
2017-10-07T03:13:25.198Z,91.20
2017-10-07T03:15:53.065Z,91.20
2017-10-07T03:18:20.932Z,91.20
2017-10-07T03:20:48.804Z,91.10
2017-10-07T03:23:16.671Z,91.20
2017-10-07T03:25:44.538Z,91.10
2017-10-07T03:28:12.407Z,91.20
2017-10-07T03:30:40.302Z,91.00
2017-10-07T03:33:08.961Z,91.10
2017-10-07T03:35:36.826Z,91.10
2017-10-07T03:38:04.692Z,91.00
2017-10-07T03:40:32.558Z,90.90
2017-10-07T03:43:00.425Z,90.90
2017-10-07T03:45:28.291Z,91.00
2017-10-07T03:47:56.159Z,91.10
2017-10-07T03:50:24.026Z,91.10
2017-10-07T03:52:51.895Z,91.10
2017-10-07T03:55:19.762Z,91.10
2017-10-07T03:57:47.628Z,91.10
2017-10-07T04:00:15.501Z,91.30
2017-10-07T04:02:43.362Z,91.40
2017-10-07T04:05:11.229Z,91.10
2017-10-07T04:07:39.098Z,91.20
2017-10-07T04:10:06.964Z,91.20
2017-10-07T04:12:34.833Z,91.20
2017-10-07T04:15:02.700Z,91.40
2017-10-07T04:17:31.386Z,91.40
2017-10-07T04:19:59.253Z,91.40
2017-10-07T04:22:27.121Z,91.20
2017-10-07T04:24:54.988Z,91.20
2017-10-07T04:27:22.855Z,91.30
2017-10-07T04:29:50.722Z,91.50
2017-10-07T04:32:18.590Z,91.40
2017-10-07T04:34:46.457Z,91.60
2017-10-07T04:37:14.324Z,91.70
2017-10-07T04:39:42.192Z,91.70
2017-10-07T04:42:10.059Z,91.70
2017-10-07T04:44:37.926Z,91.60
2017-10-07T04:47:05.794Z,91.60
2017-10-07T04:49:33.661Z,91.70
2017-10-07T04:52:01.534Z,91.70
2017-10-07T04:54:29.395Z,91.60
2017-10-07T04:56:57.262Z,91.60
2017-10-07T04:59:25.132Z,91.60
2017-10-07T05:01:52.997Z,91.60
2017-10-07T05:04:21.173Z,91.60
2017-10-07T05:06:49.040Z,91.50
2017-10-07T05:09:17.014Z,91.60
2017-10-07T05:11:44.876Z,91.60
2017-10-07T05:14:12.745Z,91.70
2017-10-07T05:16:41.127Z,91.70
2017-10-07T05:19:08.990Z,91.70
2017-10-07T05:21:36.857Z,91.60
2017-10-07T05:24:04.725Z,91.60
2017-10-07T05:26:32.592Z,91.50
2017-10-07T05:29:00.460Z,91.40
2017-10-07T05:31:28.327Z,91.60
2017-10-07T05:33:56.194Z,91.50
2017-10-07T05:36:24.164Z,91.50
2017-10-07T05:38:52.031Z,91.50
2017-10-07T05:41:19.899Z,91.50
2017-10-07T05:43:47.766Z,91.50
2017-10-07T05:46:15.634Z,91.80
2017-10-07T05:48:43.500Z,91.80
2017-10-07T05:51:11.371Z,92.00
2017-10-07T05:53:39.235Z,92.10
2017-10-07T05:56:07.102Z,92.10
2017-10-07T05:58:34.970Z,92.10
2017-10-07T06:01:02.838Z,92.10
2017-10-07T06:03:30.705Z,92.10
2017-10-07T06:05:58.674Z,92.00
2017-10-07T06:08:26.542Z,92.20
2017-10-07T06:10:54.408Z,92.30
2017-10-07T06:13:22.276Z,92.30
2017-10-07T06:15:50.143Z,92.30
2017-10-07T06:18:18.011Z,92.40
2017-10-07T06:20:45.882Z,92.60
2017-10-07T06:23:13.839Z,92.50
2017-10-07T06:25:41.721Z,92.40
2017-10-07T06:28:09.688Z,92.10
2017-10-07T06:30:37.585Z,91.90
2017-10-07T06:33:06.243Z,91.70
2017-10-07T06:35:34.109Z,91.70
2017-10-07T06:38:01.975Z,91.40
2017-10-07T06:40:29.841Z,91.60
2017-10-07T06:42:57.708Z,91.60
2017-10-07T06:45:25.575Z,91.30
2017-10-07T06:47:53.442Z,91.30
2017-10-07T06:50:21.310Z,91.10
2017-10-07T06:52:49.177Z,90.70
2017-10-07T06:55:17.146Z,90.70
2017-10-07T06:57:45.017Z,90.40
2017-10-07T07:00:12.881Z,90.50
2017-10-07T07:02:40.749Z,90.40
2017-10-07T07:05:08.615Z,90.90
2017-10-07T07:07:36.483Z,90.20
2017-10-07T07:10:04.350Z,90.30
2017-10-07T07:12:32.217Z,89.90
2017-10-07T07:15:00.084Z,90.10
2017-10-07T07:17:27.952Z,89.60
2017-10-07T07:19:55.823Z,90.20
2017-10-07T07:22:23.686Z,90.00
2017-10-07T07:24:51.657Z,88.90
2017-10-07T07:27:19.524Z,88.80
2017-10-07T07:29:47.391Z,88.40
2017-10-07T07:32:15.259Z,88.00
2017-10-07T07:34:43.125Z,88.40
2017-10-07T07:37:10.993Z,88.60
2017-10-07T07:39:38.861Z,89.20
2017-10-07T07:42:06.728Z,89.20
2017-10-07T07:44:34.596Z,90.10
2017-10-07T07:47:02.463Z,90.00
2017-10-07T07:49:30.333Z,90.10
2017-10-07T07:51:58.197Z,90.40
2017-10-07T07:54:26.064Z,90.00
2017-10-07T07:56:53.932Z,88.50
2017-10-07T07:59:21.799Z,87.00
2017-10-07T08:01:49.597Z,86.10
2017-10-07T08:04:18.250Z,84.80
2017-10-07T08:06:46.118Z,84.80
2017-10-07T08:09:13.991Z,85.90
2017-10-07T08:11:41.852Z,85.60
2017-10-07T08:14:09.719Z,85.20
2017-10-07T08:16:37.588Z,86.10
2017-10-07T08:19:05.454Z,86.40
2017-10-07T08:21:33.322Z,86.50
2017-10-07T08:24:01.190Z,87.20
2017-10-07T08:26:29.056Z,87.40
2017-10-07T08:28:56.924Z,86.90
2017-10-07T08:31:24.791Z,88.10
2017-10-07T08:33:52.660Z,88.30
2017-10-07T08:36:20.628Z,87.90
2017-10-07T08:38:48.496Z,86.90
2017-10-07T08:41:16.363Z,84.60
2017-10-07T08:43:44.230Z,81.40
2017-10-07T08:46:12.097Z,81.50
2017-10-07T08:48:40.190Z,82.70
2017-10-07T08:51:08.037Z,81.80
2017-10-07T08:53:35.904Z,83.50
2017-10-07T08:56:03.976Z,83.70
2017-10-07T08:58:31.844Z,84.10
2017-10-07T09:00:59.710Z,82.30
2017-10-07T09:03:27.578Z,85.70
2017-10-07T09:05:55.446Z,84.90
2017-10-07T09:08:23.314Z,84.80
2017-10-07T09:10:51.189Z,84.90
2017-10-07T09:13:19.047Z,85.10
2017-10-07T09:15:46.915Z,85.20
2017-10-07T09:18:14.782Z,86.60
2017-10-07T09:20:42.753Z,84.20
2017-10-07T09:23:10.518Z,84.50
2017-10-07T09:25:38.286Z,86.00
2017-10-07T09:28:06.078Z,86.20
2017-10-07T09:30:33.918Z,85.30
2017-10-07T09:33:01.783Z,85.30
2017-10-07T09:35:29.654Z,83.80
2017-10-07T09:37:57.520Z,79.50
2017-10-07T09:40:25.390Z,77.50
2017-10-07T09:42:53.254Z,79.00
2017-10-07T09:45:21.427Z,78.60
2017-10-07T09:47:49.294Z,78.40
2017-10-07T09:50:17.160Z,81.30
2017-10-07T09:52:45.026Z,81.40
2017-10-07T09:55:12.823Z,82.80
2017-10-07T09:57:41.478Z,84.80
2017-10-07T10:00:09.348Z,84.70
2017-10-07T10:02:37.213Z,85.90
2017-10-07T10:05:05.081Z,86.40
2017-10-07T10:07:32.948Z,85.00
2017-10-07T10:10:00.815Z,85.80
2017-10-07T10:12:28.683Z,86.30
2017-10-07T10:14:56.550Z,85.80
2017-10-07T10:17:24.418Z,86.50
2017-10-07T10:19:52.287Z,86.70
2017-10-07T10:22:20.151Z,86.70
2017-10-07T10:24:48.122Z,86.60
2017-10-07T10:27:15.993Z,86.30
2017-10-07T10:29:43.857Z,86.80
2017-10-07T10:32:11.724Z,86.60
2017-10-07T10:34:39.591Z,87.50
2017-10-07T10:37:07.458Z,85.30
2017-10-07T10:39:35.325Z,85.50
2017-10-07T10:42:03.194Z,85.10
2017-10-07T10:44:31.060Z,86.30
2017-10-07T10:46:58.927Z,85.60
2017-10-07T10:49:26.794Z,83.50
2017-10-07T10:51:54.662Z,84.70
2017-10-07T10:54:22.529Z,85.10
2017-10-07T10:56:50.396Z,82.60
2017-10-07T10:59:18.265Z,82.80
2017-10-07T11:01:46.132Z,83.10
2017-10-07T11:04:13.999Z,84.00
2017-10-07T11:06:41.869Z,79.90
2017-10-07T11:09:09.666Z,78.40
2017-10-07T11:11:38.215Z,79.80
2017-10-07T11:14:06.081Z,79.60
2017-10-07T11:16:33.948Z,77.50
2017-10-07T11:19:01.918Z,77.80
2017-10-07T11:21:29.714Z,75.50
2017-10-07T11:23:57.551Z,75.40
2017-10-07T11:26:25.419Z,76.10
2017-10-07T11:28:53.286Z,73.50
2017-10-07T11:31:21.153Z,73.20
2017-10-07T11:33:49.020Z,75.10
2017-10-07T11:36:16.888Z,73.90
2017-10-07T11:38:46.113Z,73.50
2017-10-07T11:41:13.956Z,72.40
2017-10-07T11:43:42.743Z,71.90
2017-10-07T11:46:10.609Z,71.80
2017-10-07T11:48:38.477Z,72.20
2017-10-07T11:51:06.344Z,73.40
2017-10-07T11:53:34.211Z,73.10
2017-10-07T11:56:02.080Z,73.00
2017-10-07T11:58:29.947Z,72.40
2017-10-07T12:00:57.821Z,72.90
2017-10-07T12:03:25.681Z,73.00
2017-10-07T12:05:53.588Z,72.80
2017-10-07T12:08:22.234Z,73.80
2017-10-07T12:10:50.102Z,73.70
2017-10-07T12:13:17.969Z,74.40
2017-10-07T12:15:45.837Z,74.40
2017-10-07T12:18:13.705Z,73.70
2017-10-07T12:20:41.673Z,74.80
2017-10-07T12:23:09.541Z,76.60
2017-10-07T12:25:37.408Z,76.10
2017-10-07T12:28:05.231Z,77.30
2017-10-07T12:30:33.041Z,76.50
2017-10-07T12:33:00.907Z,76.70
2017-10-07T12:35:28.775Z,77.00
2017-10-07T12:37:56.643Z,77.30
2017-10-07T12:40:24.515Z,77.50
2017-10-07T12:42:52.383Z,78.00
2017-10-07T12:45:20.244Z,77.70
2017-10-07T12:47:48.113Z,76.40
2017-10-07T12:50:15.984Z,79.10
2017-10-07T12:52:43.851Z,80.40
2017-10-07T12:55:11.820Z,80.50
2017-10-07T12:57:39.686Z,81.20
2017-10-07T13:00:07.552Z,80.20
2017-10-07T13:02:35.417Z,81.50
2017-10-07T13:05:03.286Z,81.10
2017-10-07T13:07:31.152Z,79.70
2017-10-07T13:09:59.020Z,79.60
2017-10-07T13:12:26.886Z,80.30
2017-10-07T13:14:54.755Z,79.00
2017-10-07T13:17:22.551Z,78.90
2017-10-07T13:19:52.756Z,76.50
2017-10-07T13:22:20.609Z,76.50
2017-10-07T13:24:48.477Z,78.50
2017-10-07T13:27:18.365Z,77.30
2017-10-07T13:29:48.722Z,78.20
2017-10-07T13:32:19.019Z,78.80
2017-10-07T13:34:53.301Z,81.30
2017-10-07T13:37:31.437Z,79.00
2017-10-07T13:40:12.517Z,77.00
2017-10-07T13:42:41.231Z,79.40
2017-10-07T13:45:09.098Z,79.40
2017-10-07T13:47:39.633Z,80.60
2017-10-07T13:50:07.496Z,80.40
2017-10-07T13:52:35.363Z,81.00
2017-10-07T13:55:03.231Z,80.40
2017-10-07T13:57:31.711Z,80.10
2017-10-07T13:59:59.579Z,81.60
2017-10-07T14:02:27.451Z,81.40
2017-10-07T14:04:55.314Z,80.30
2017-10-07T14:07:23.490Z,80.50
2017-10-07T14:09:51.356Z,80.90
2017-10-07T14:12:19.150Z,81.30
2017-10-07T14:14:47.091Z,80.30
2017-10-07T14:17:14.958Z,81.60
2017-10-07T14:19:42.927Z,81.00
2017-10-07T14:22:10.897Z,81.70
2017-10-07T14:24:38.764Z,81.90
2017-10-07T14:27:06.938Z,82.00
2017-10-07T14:29:34.806Z,82.90
2017-10-07T14:32:02.674Z,82.80
2017-10-07T14:34:30.541Z,82.30
2017-10-07T14:36:58.408Z,84.00
2017-10-07T14:39:26.275Z,84.20
2017-10-07T14:41:54.143Z,84.50
2017-10-07T14:44:22.114Z,84.70
2017-10-07T14:46:49.979Z,83.40
2017-10-07T14:49:17.849Z,82.70
2017-10-07T14:54:19.521Z,82.50
2017-10-07T14:56:47.389Z,83.60
2017-10-07T14:59:15.255Z,83.00
2017-10-07T15:01:43.126Z,83.30
2017-10-07T15:04:10.990Z,82.60
2017-10-07T15:06:38.858Z,82.90
2017-10-07T15:09:06.726Z,82.90
2017-10-07T15:11:34.594Z,82.70
2017-10-07T15:14:02.460Z,82.60
2017-10-07T15:16:30.327Z,81.70
2017-10-07T15:18:58.118Z,81.80
2017-10-07T15:21:25.959Z,81.80
2017-10-07T15:23:53.826Z,82.70
2017-10-07T15:26:21.693Z,83.50
2017-10-07T15:28:49.561Z,83.80
2017-10-07T15:31:17.429Z,83.70
2017-10-07T15:33:45.296Z,82.30
2017-10-07T15:36:13.266Z,82.30
2017-10-07T15:38:41.132Z,82.40
2017-10-07T15:41:09.001Z,81.70
2017-10-07T15:43:36.869Z,82.50
2017-10-07T15:46:04.976Z,81.90
2017-10-07T15:48:33.625Z,81.70
2017-10-07T15:51:01.493Z,81.70
2017-10-07T15:53:29.371Z,82.10
2017-10-07T15:55:57.438Z,81.60
2017-10-07T15:58:25.301Z,82.00
2017-10-07T16:00:53.172Z,81.50
2017-10-07T16:03:21.041Z,82.00
2017-10-07T16:05:49.213Z,81.20
2017-10-07T16:08:17.179Z,81.30
2017-10-07T16:10:45.151Z,81.20
2017-10-07T16:13:13.016Z,81.60
2017-10-07T16:15:42.381Z,82.30
2017-10-07T16:18:10.286Z,82.00
2017-10-07T16:20:38.154Z,81.70
2017-10-07T16:23:06.021Z,82.30
2017-10-07T16:25:33.889Z,82.60
2017-10-07T16:28:01.756Z,83.20
2017-10-07T16:30:29.623Z,83.10
2017-10-07T16:32:57.489Z,83.70
2017-10-07T16:35:25.358Z,84.40
2017-10-07T16:37:53.329Z,84.10
2017-10-07T16:40:22.116Z,84.50
2017-10-07T16:42:50.700Z,84.40
2017-10-07T16:45:18.567Z,84.80
2017-10-07T16:47:46.434Z,84.10
2017-10-07T16:50:14.310Z,84.80
2017-10-07T16:52:42.170Z,84.70
2017-10-07T16:55:10.037Z,84.70
2017-10-07T16:57:37.908Z,84.90
2017-10-07T17:00:05.772Z,85.00
2017-10-07T17:02:33.914Z,85.00
2017-10-07T17:05:02.633Z,85.00
2017-10-07T17:07:30.500Z,85.00
2017-10-07T17:09:58.367Z,85.00
2017-10-07T17:12:26.235Z,85.40
2017-10-07T17:14:54.102Z,85.40
2017-10-07T17:17:22.176Z,85.80
2017-10-07T17:19:50.043Z,85.70
2017-10-07T17:22:17.908Z,85.10
2017-10-07T17:24:45.776Z,85.30
2017-10-07T17:27:13.643Z,85.60
2017-10-07T17:29:41.510Z,85.10
2017-10-07T17:32:09.378Z,85.90
2017-10-07T17:34:37.245Z,84.80
2017-10-07T17:37:05.113Z,85.00
2017-10-07T17:39:32.979Z,86.50
2017-10-07T17:42:00.848Z,87.40
2017-10-07T17:44:28.642Z,86.40
2017-10-07T17:46:56.479Z,86.60
2017-10-07T17:49:24.346Z,86.40
2017-10-07T17:51:52.316Z,86.00
2017-10-07T17:54:20.184Z,85.10
2017-10-07T17:56:48.051Z,84.40
2017-10-07T17:59:15.918Z,84.20
2017-10-07T18:01:43.785Z,84.40
2017-10-07T18:04:11.654Z,84.30
2017-10-07T18:06:39.520Z,84.10
2017-10-07T18:09:07.387Z,84.20
2017-10-07T18:11:35.256Z,85.10
2017-10-07T18:14:03.122Z,83.20
2017-10-07T18:16:30.990Z,83.20
2017-10-07T18:18:58.856Z,83.20
2017-10-07T18:21:26.827Z,81.60
2017-10-07T18:23:54.694Z,81.20
2017-10-07T18:26:22.561Z,82.30
2017-10-07T18:28:50.428Z,82.00
2017-10-07T18:31:18.296Z,82.20
2017-10-07T18:33:46.163Z,81.30
2017-10-07T18:36:14.031Z,81.60
2017-10-07T18:38:41.897Z,81.70
2017-10-07T18:41:09.765Z,82.10
2017-10-07T18:43:37.633Z,82.40
2017-10-07T18:46:05.499Z,82.70
2017-10-07T18:48:33.367Z,82.60
2017-10-07T18:51:01.234Z,83.30
2017-10-07T18:53:29.101Z,83.40
2017-10-07T18:55:57.072Z,84.20
2017-10-07T18:58:24.939Z,84.80
2017-10-07T19:00:52.805Z,85.40
2017-10-07T19:03:20.677Z,85.80
2017-10-07T19:05:48.543Z,85.60
2017-10-07T19:08:16.408Z,85.70
2017-10-07T19:10:44.282Z,85.80
2017-10-07T19:13:12.248Z,85.80
2017-10-07T19:15:40.115Z,85.90
2017-10-07T19:18:07.983Z,85.30
2017-10-07T19:20:35.849Z,84.20
2017-10-07T19:23:03.715Z,85.00
2017-10-07T19:25:31.581Z,84.80
2017-10-07T19:27:59.449Z,85.20
2017-10-07T19:30:27.316Z,85.00
2017-10-07T19:32:55.182Z,85.00
2017-10-07T19:35:23.051Z,84.50
2017-10-07T19:37:50.917Z,84.10
2017-10-07T19:40:18.786Z,84.40
2017-10-07T19:42:46.653Z,84.50
2017-10-07T19:45:14.520Z,84.10
2017-10-07T19:47:42.391Z,84.10
2017-10-07T19:50:10.256Z,83.60
2017-10-07T19:52:38.122Z,84.60
2017-10-07T19:55:06.018Z,84.30
2017-10-07T19:57:33.856Z,84.50
2017-10-07T20:00:01.724Z,83.90
2017-10-07T20:02:29.591Z,84.30
2017-10-07T20:04:57.464Z,84.60
2017-10-07T20:07:25.327Z,85.30
2017-10-07T20:09:53.193Z,85.60
2017-10-07T20:12:21.059Z,85.10
2017-10-07T20:14:48.931Z,85.30
2017-10-07T20:17:16.795Z,85.10
2017-10-07T20:19:45.482Z,85.70
2017-10-07T20:22:13.348Z,85.70
2017-10-07T20:24:41.216Z,86.00
2017-10-07T20:27:09.083Z,85.90
2017-10-07T20:29:36.954Z,86.30
2017-10-07T20:32:04.819Z,86.30
2017-10-07T20:34:32.685Z,86.60
2017-10-07T20:37:00.558Z,86.80
2017-10-07T20:39:28.420Z,86.60
2017-10-07T20:41:56.287Z,86.30
2017-10-07T20:44:24.154Z,86.20
2017-10-07T20:46:52.022Z,87.20
2017-10-07T20:49:19.889Z,86.80
2017-10-07T20:51:47.757Z,87.10
2017-10-07T20:54:15.623Z,87.50
2017-10-07T20:56:43.491Z,86.90
2017-10-07T20:59:11.359Z,87.60
2017-10-07T21:01:39.229Z,87.50
2017-10-07T21:04:07.094Z,87.00
2017-10-07T21:06:34.858Z,87.40
2017-10-07T21:09:02.725Z,87.60
2017-10-07T21:11:30.593Z,87.60
2017-10-07T21:13:58.460Z,88.00
2017-10-07T21:16:26.329Z,88.50
2017-10-07T21:18:54.194Z,88.10
2017-10-07T21:21:22.063Z,88.30
2017-10-07T21:23:49.929Z,88.30
2017-10-07T21:26:17.797Z,88.20
2017-10-07T21:28:45.665Z,88.50
2017-10-07T21:31:13.531Z,88.50
2017-10-07T21:33:41.399Z,88.30
2017-10-07T21:36:09.265Z,88.30
2017-10-07T21:38:37.133Z,88.20
2017-10-07T21:41:05.000Z,88.40
2017-10-07T21:43:32.970Z,87.90
2017-10-07T21:46:00.837Z,88.00
2017-10-07T21:48:28.704Z,88.70
2017-10-07T21:50:56.572Z,88.30
2017-10-07T21:53:24.438Z,88.20
2017-10-07T21:55:52.306Z,88.20
2017-10-07T21:58:20.174Z,88.20
2017-10-07T22:00:48.041Z,88.20
2017-10-07T22:03:15.943Z,88.90
2017-10-07T22:05:44.595Z,89.40
2017-10-07T22:08:12.462Z,89.40
2017-10-07T22:10:40.337Z,90.00
2017-10-07T22:13:08.203Z,90.00
2017-10-07T22:15:36.067Z,90.00
2017-10-07T22:18:03.932Z,90.10
2017-10-07T22:20:31.802Z,90.10
2017-10-07T22:22:59.671Z,90.10
2017-10-07T22:25:27.535Z,90.20
2017-10-07T22:27:55.412Z,90.40
2017-10-07T22:30:23.268Z,90.40
2017-10-07T22:32:51.135Z,90.40
2017-10-07T22:35:19.002Z,90.40
2017-10-07T22:37:53.601Z,90.40
2017-10-07T22:40:25.351Z,90.40
2017-10-07T22:42:56.377Z,90.40
2017-10-07T22:45:25.961Z,90.40
2017-10-07T22:47:54.929Z,90.60
2017-10-07T22:50:22.796Z,90.60
2017-10-07T22:52:50.663Z,90.80
2017-10-07T22:55:18.530Z,90.90
2017-10-07T22:57:46.397Z,90.70
2017-10-07T23:00:14.265Z,90.80
2017-10-07T23:02:42.132Z,91.00
2017-10-07T23:05:10.001Z,90.90
2017-10-07T23:07:37.867Z,90.80
2017-10-07T23:10:05.734Z,91.00
2017-10-07T23:12:33.601Z,90.90
2017-10-07T23:15:01.470Z,91.00
2017-10-07T23:17:29.339Z,91.20
2017-10-07T23:19:57.204Z,90.90
2017-10-07T23:22:32.956Z,91.10
2017-10-07T23:25:00.823Z,91.20
2017-10-07T23:27:28.691Z,91.30
2017-10-07T23:29:56.559Z,91.30
2017-10-07T23:32:24.425Z,91.30
2017-10-07T23:34:52.292Z,91.10
2017-10-07T23:37:20.160Z,91.10
2017-10-07T23:39:48.028Z,91.20
2017-10-07T23:42:15.896Z,91.30
2017-10-07T23:44:43.764Z,91.30
2017-10-07T23:47:11.554Z,91.30
2017-10-07T23:49:39.393Z,91.40
2017-10-07T23:52:07.261Z,91.20
2017-10-07T23:54:35.128Z,91.40
2017-10-07T23:57:02.995Z,91.50
2017-10-07T23:59:30.863Z,91.70
